sensor_id;sensor_type;location;lat;lon;timestamp;P1;durP1;ratioP1;P2;durP2;ratioP2
18290;SDS011;9271;48.590;8.866;2022-12-11T00:01:44;13.93;;;11.60;;
18290;SDS011;9271;48.590;8.866;2022-12-11T00:04:10;14.60;;;11.27;;
18290;SDS011;9271;48.590;8.866;2022-12-11T00:06:38;14.37;;;11.37;;
18290;SDS011;9271;48.590;8.866;2022-12-11T00:09:05;14.20;;;11.00;;
18290;SDS011;9271;48.590;8.866;2022-12-11T00:11:31;13.97;;;10.80;;
18290;SDS011;9271;48.590;8.866;2022-12-11T00:13:58;13.07;;;10.97;;
18290;SDS011;9271;48.590;8.866;2022-12-11T00:16:26;12.87;;;10.07;;
18290;SDS011;9271;48.590;8.866;2022-12-11T00:18:53;13.17;;;10.40;;
18290;SDS011;9271;48.590;8.866;2022-12-11T00:21:19;12.67;;;9.60;;
18290;SDS011;9271;48.590;8.866;2022-12-11T00:23:46;12.93;;;10.33;;
18290;SDS011;9271;48.590;8.866;2022-12-11T00:26:13;13.93;;;10.47;;
18290;SDS011;9271;48.590;8.866;2022-12-11T00:28:41;12.07;;;9.67;;
18290;SDS011;9271;48.590;8.866;2022-12-11T00:31:10;11.13;;;9.27;;
18290;SDS011;9271;48.590;8.866;2022-12-11T00:33:41;13.57;;;10.20;;
18290;SDS011;9271;48.590;8.866;2022-12-11T00:36:12;13.33;;;10.23;;
18290;SDS011;9271;48.590;8.866;2022-12-11T00:38:39;12.27;;;9.73;;
18290;SDS011;9271;48.590;8.866;2022-12-11T00:41:06;14.50;;;10.23;;
18290;SDS011;9271;48.590;8.866;2022-12-11T00:43:33;12.93;;;10.20;;
18290;SDS011;9271;48.590;8.866;2022-12-11T00:46:00;14.13;;;10.53;;
18290;SDS011;9271;48.590;8.866;2022-12-11T00:48:27;15.03;;;10.17;;
18290;SDS011;9271;48.590;8.866;2022-12-11T00:50:56;12.03;;;10.27;;
18290;SDS011;9271;48.590;8.866;2022-12-11T00:53:22;12.70;;;9.63;;
18290;SDS011;9271;48.590;8.866;2022-12-11T00:55:49;14.00;;;10.30;;
18290;SDS011;9271;48.590;8.866;2022-12-11T00:58:16;13.03;;;10.33;;
18290;SDS011;9271;48.590;8.866;2022-12-11T01:00:43;13.80;;;10.63;;
18290;SDS011;9271;48.590;8.866;2022-12-11T01:03:12;15.57;;;11.03;;
18290;SDS011;9271;48.590;8.866;2022-12-11T01:05:39;14.43;;;10.87;;
18290;SDS011;9271;48.590;8.866;2022-12-11T01:08:08;13.33;;;10.47;;
18290;SDS011;9271;48.590;8.866;2022-12-11T01:10:34;13.87;;;10.73;;
18290;SDS011;9271;48.590;8.866;2022-12-11T01:13:01;14.67;;;11.77;;
18290;SDS011;9271;48.590;8.866;2022-12-11T01:15:30;13.80;;;9.67;;
18290;SDS011;9271;48.590;8.866;2022-12-11T01:17:58;11.83;;;9.83;;
18290;SDS011;9271;48.590;8.866;2022-12-11T01:20:25;12.27;;;9.67;;
18290;SDS011;9271;48.590;8.866;2022-12-11T01:22:53;11.40;;;9.53;;
18290;SDS011;9271;48.590;8.866;2022-12-11T01:25:23;11.10;;;9.83;;
18290;SDS011;9271;48.590;8.866;2022-12-11T01:27:51;12.40;;;9.47;;
18290;SDS011;9271;48.590;8.866;2022-12-11T01:30:20;12.00;;;9.50;;
18290;SDS011;9271;48.590;8.866;2022-12-11T01:32:48;12.63;;;9.37;;
18290;SDS011;9271;48.590;8.866;2022-12-11T01:35:15;11.73;;;9.57;;
18290;SDS011;9271;48.590;8.866;2022-12-11T01:37:42;12.13;;;9.77;;
18290;SDS011;9271;48.590;8.866;2022-12-11T01:40:10;10.83;;;9.03;;
18290;SDS011;9271;48.590;8.866;2022-12-11T01:42:39;10.57;;;8.47;;
18290;SDS011;9271;48.590;8.866;2022-12-11T01:47:54;11.83;;;9.47;;
18290;SDS011;9271;48.590;8.866;2022-12-11T01:50:26;10.60;;;8.87;;
18290;SDS011;9271;48.590;8.866;2022-12-11T01:52:53;13.13;;;9.07;;
18290;SDS011;9271;48.590;8.866;2022-12-11T01:55:20;11.47;;;8.33;;
18290;SDS011;9271;48.590;8.866;2022-12-11T01:57:48;10.80;;;8.70;;
18290;SDS011;9271;48.590;8.866;2022-12-11T02:00:17;10.07;;;8.37;;
18290;SDS011;9271;48.590;8.866;2022-12-11T02:02:45;10.90;;;8.47;;
18290;SDS011;9271;48.590;8.866;2022-12-11T02:05:12;9.40;;;8.33;;
18290;SDS011;9271;48.590;8.866;2022-12-11T02:07:40;8.23;;;7.43;;
18290;SDS011;9271;48.590;8.866;2022-12-11T02:10:10;9.17;;;7.93;;
18290;SDS011;9271;48.590;8.866;2022-12-11T02:12:38;8.90;;;8.00;;
18290;SDS011;9271;48.590;8.866;2022-12-11T02:15:16;9.23;;;8.10;;
18290;SDS011;9271;48.590;8.866;2022-12-11T02:17:51;9.20;;;8.10;;
18290;SDS011;9271;48.590;8.866;2022-12-11T02:20:25;9.13;;;7.87;;
18290;SDS011;9271;48.590;8.866;2022-12-11T02:23:11;10.20;;;8.77;;
18290;SDS011;9271;48.590;8.866;2022-12-11T02:25:50;10.17;;;8.17;;
18290;SDS011;9271;48.590;8.866;2022-12-11T02:28:30;9.77;;;7.80;;
18290;SDS011;9271;48.590;8.866;2022-12-11T02:31:00;8.33;;;7.43;;
18290;SDS011;9271;48.590;8.866;2022-12-11T02:33:32;8.93;;;7.50;;
18290;SDS011;9271;48.590;8.866;2022-12-11T02:36:06;8.77;;;7.63;;
18290;SDS011;9271;48.590;8.866;2022-12-11T02:38:34;8.90;;;8.00;;
18290;SDS011;9271;48.590;8.866;2022-12-11T02:41:04;9.80;;;7.97;;
18290;SDS011;9271;48.590;8.866;2022-12-11T02:43:34;9.10;;;7.87;;
18290;SDS011;9271;48.590;8.866;2022-12-11T02:46:03;8.87;;;7.50;;
18290;SDS011;9271;48.590;8.866;2022-12-11T02:48:32;10.80;;;8.10;;
18290;SDS011;9271;48.590;8.866;2022-12-11T02:51:00;10.27;;;8.07;;
18290;SDS011;9271;48.590;8.866;2022-12-11T02:53:30;10.67;;;8.30;;
18290;SDS011;9271;48.590;8.866;2022-12-11T02:56:00;9.60;;;8.43;;
18290;SDS011;9271;48.590;8.866;2022-12-11T02:58:32;9.57;;;8.07;;
18290;SDS011;9271;48.590;8.866;2022-12-11T03:01:01;9.73;;;8.50;;
18290;SDS011;9271;48.590;8.866;2022-12-11T03:03:28;11.63;;;8.93;;
18290;SDS011;9271;48.590;8.866;2022-12-11T03:05:55;11.03;;;8.30;;
18290;SDS011;9271;48.590;8.866;2022-12-11T03:08:22;9.17;;;8.20;;
18290;SDS011;9271;48.590;8.866;2022-12-11T03:10:49;9.27;;;8.20;;
18290;SDS011;9271;48.590;8.866;2022-12-11T03:13:17;9.83;;;8.37;;
18290;SDS011;9271;48.590;8.866;2022-12-11T03:15:49;9.37;;;7.80;;
18290;SDS011;9271;48.590;8.866;2022-12-11T03:18:26;10.83;;;7.93;;
18290;SDS011;9271;48.590;8.866;2022-12-11T03:21:02;11.30;;;9.30;;
18290;SDS011;9271;48.590;8.866;2022-12-11T03:23:32;9.80;;;8.10;;
18290;SDS011;9271;48.590;8.866;2022-12-11T03:26:07;10.77;;;9.03;;
18290;SDS011;9271;48.590;8.866;2022-12-11T03:28:38;9.07;;;7.67;;
18290;SDS011;9271;48.590;8.866;2022-12-11T03:31:12;9.70;;;8.27;;
18290;SDS011;9271;48.590;8.866;2022-12-11T03:33:45;9.37;;;7.80;;
18290;SDS011;9271;48.590;8.866;2022-12-11T03:36:16;9.13;;;7.67;;
18290;SDS011;9271;48.590;8.866;2022-12-11T03:38:48;9.93;;;7.77;;
18290;SDS011;9271;48.590;8.866;2022-12-11T03:41:19;11.80;;;8.87;;
18290;SDS011;9271;48.590;8.866;2022-12-11T03:43:50;10.20;;;8.70;;
18290;SDS011;9271;48.590;8.866;2022-12-11T03:46:22;10.03;;;8.40;;
18290;SDS011;9271;48.590;8.866;2022-12-11T03:48:53;9.83;;;8.30;;
18290;SDS011;9271;48.590;8.866;2022-12-11T03:51:23;10.27;;;8.80;;
18290;SDS011;9271;48.590;8.866;2022-12-11T03:53:51;10.80;;;9.07;;
18290;SDS011;9271;48.590;8.866;2022-12-11T03:56:18;10.67;;;9.10;;
18290;SDS011;9271;48.590;8.866;2022-12-11T03:58:47;10.37;;;8.83;;
18290;SDS011;9271;48.590;8.866;2022-12-11T04:01:13;10.43;;;9.07;;
18290;SDS011;9271;48.590;8.866;2022-12-11T04:03:41;10.50;;;8.60;;
18290;SDS011;9271;48.590;8.866;2022-12-11T04:06:08;10.00;;;8.37;;
18290;SDS011;9271;48.590;8.866;2022-12-11T04:08:35;9.63;;;8.60;;
18290;SDS011;9271;48.590;8.866;2022-12-11T04:11:02;10.43;;;8.50;;
18290;SDS011;9271;48.590;8.866;2022-12-11T04:13:46;11.27;;;9.50;;
18290;SDS011;9271;48.590;8.866;2022-12-11T04:16:33;10.73;;;8.70;;
18290;SDS011;9271;48.590;8.866;2022-12-11T04:19:00;10.77;;;9.17;;
18290;SDS011;9271;48.590;8.866;2022-12-11T04:21:44;11.73;;;9.40;;
18290;SDS011;9271;48.590;8.866;2022-12-11T04:24:28;12.53;;;9.40;;
18290;SDS011;9271;48.590;8.866;2022-12-11T04:26:55;9.90;;;8.67;;
18290;SDS011;9271;48.590;8.866;2022-12-11T04:29:22;10.80;;;9.00;;
18290;SDS011;9271;48.590;8.866;2022-12-11T04:31:48;10.47;;;8.83;;
18290;SDS011;9271;48.590;8.866;2022-12-11T04:34:17;11.83;;;9.23;;
18290;SDS011;9271;48.590;8.866;2022-12-11T04:36:43;11.23;;;8.93;;
18290;SDS011;9271;48.590;8.866;2022-12-11T04:39:10;9.80;;;8.27;;
18290;SDS011;9271;48.590;8.866;2022-12-11T04:41:37;13.67;;;9.37;;
18290;SDS011;9271;48.590;8.866;2022-12-11T04:44:05;10.10;;;8.93;;
18290;SDS011;9271;48.590;8.866;2022-12-11T04:46:32;10.20;;;8.67;;
18290;SDS011;9271;48.590;8.866;2022-12-11T04:48:59;9.77;;;8.50;;
18290;SDS011;9271;48.590;8.866;2022-12-11T04:51:27;10.30;;;8.57;;
18290;SDS011;9271;48.590;8.866;2022-12-11T04:53:54;9.87;;;8.30;;
18290;SDS011;9271;48.590;8.866;2022-12-11T04:56:22;11.13;;;8.97;;
18290;SDS011;9271;48.590;8.866;2022-12-11T04:58:49;8.70;;;7.53;;
18290;SDS011;9271;48.590;8.866;2022-12-11T05:01:16;9.97;;;8.20;;
18290;SDS011;9271;48.590;8.866;2022-12-11T05:03:45;9.23;;;7.80;;
18290;SDS011;9271;48.590;8.866;2022-12-11T05:06:12;9.27;;;8.07;;
18290;SDS011;9271;48.590;8.866;2022-12-11T05:08:41;8.43;;;7.10;;
18290;SDS011;9271;48.590;8.866;2022-12-11T05:11:10;9.20;;;7.33;;
18290;SDS011;9271;48.590;8.866;2022-12-11T05:13:38;10.47;;;7.67;;
18290;SDS011;9271;48.590;8.866;2022-12-11T05:16:06;8.33;;;7.43;;
18290;SDS011;9271;48.590;8.866;2022-12-11T05:18:34;9.10;;;7.63;;
18290;SDS011;9271;48.590;8.866;2022-12-11T05:21:02;8.57;;;7.43;;
18290;SDS011;9271;48.590;8.866;2022-12-11T05:23:30;8.33;;;7.43;;
18290;SDS011;9271;48.590;8.866;2022-12-11T05:25:59;8.93;;;7.07;;
18290;SDS011;9271;48.590;8.866;2022-12-11T05:28:28;10.10;;;8.30;;
18290;SDS011;9271;48.590;8.866;2022-12-11T05:30:56;8.83;;;7.43;;
18290;SDS011;9271;48.590;8.866;2022-12-11T05:33:24;9.40;;;7.47;;
18290;SDS011;9271;48.590;8.866;2022-12-11T05:35:51;7.67;;;6.83;;
18290;SDS011;9271;48.590;8.866;2022-12-11T05:38:18;8.77;;;7.10;;
18290;SDS011;9271;48.590;8.866;2022-12-11T05:40:53;9.07;;;7.37;;
18290;SDS011;9271;48.590;8.866;2022-12-11T05:43:23;9.00;;;7.53;;
18290;SDS011;9271;48.590;8.866;2022-12-11T05:45:50;9.27;;;7.57;;
18290;SDS011;9271;48.590;8.866;2022-12-11T05:48:17;11.17;;;7.60;;
18290;SDS011;9271;48.590;8.866;2022-12-11T05:50:43;8.83;;;7.10;;
18290;SDS011;9271;48.590;8.866;2022-12-11T05:53:10;8.43;;;7.47;;
18290;SDS011;9271;48.590;8.866;2022-12-11T05:55:37;9.57;;;7.70;;
18290;SDS011;9271;48.590;8.866;2022-12-11T05:58:04;9.37;;;8.17;;
18290;SDS011;9271;48.590;8.866;2022-12-11T06:00:32;8.67;;;7.53;;
18290;SDS011;9271;48.590;8.866;2022-12-11T06:02:58;9.20;;;7.90;;
18290;SDS011;9271;48.590;8.866;2022-12-11T06:05:25;9.23;;;7.53;;
18290;SDS011;9271;48.590;8.866;2022-12-11T06:07:52;9.03;;;7.53;;
18290;SDS011;9271;48.590;8.866;2022-12-11T06:10:18;8.30;;;7.43;;
18290;SDS011;9271;48.590;8.866;2022-12-11T06:12:45;8.07;;;7.17;;
18290;SDS011;9271;48.590;8.866;2022-12-11T06:15:12;11.63;;;7.53;;
18290;SDS011;9271;48.590;8.866;2022-12-11T06:17:40;8.50;;;7.60;;
18290;SDS011;9271;48.590;8.866;2022-12-11T06:20:07;9.33;;;7.10;;
18290;SDS011;9271;48.590;8.866;2022-12-11T06:22:34;8.00;;;7.00;;
18290;SDS011;9271;48.590;8.866;2022-12-11T06:25:00;10.87;;;7.87;;
18290;SDS011;9271;48.590;8.866;2022-12-11T06:27:27;10.77;;;8.33;;
18290;SDS011;9271;48.590;8.866;2022-12-11T06:29:54;8.77;;;7.10;;
18290;SDS011;9271;48.590;8.866;2022-12-11T06:32:21;8.80;;;7.20;;
18290;SDS011;9271;48.590;8.866;2022-12-11T06:34:49;8.87;;;7.13;;
18290;SDS011;9271;48.590;8.866;2022-12-11T06:37:15;10.07;;;8.07;;
18290;SDS011;9271;48.590;8.866;2022-12-11T06:39:42;11.33;;;7.57;;
18290;SDS011;9271;48.590;8.866;2022-12-11T06:42:09;10.03;;;7.83;;
18290;SDS011;9271;48.590;8.866;2022-12-11T06:44:36;9.77;;;8.17;;
18290;SDS011;9271;48.590;8.866;2022-12-11T06:47:02;10.37;;;7.97;;
18290;SDS011;9271;48.590;8.866;2022-12-11T06:49:29;9.80;;;8.07;;
18290;SDS011;9271;48.590;8.866;2022-12-11T06:51:57;10.87;;;9.10;;
18290;SDS011;9271;48.590;8.866;2022-12-11T06:54:24;21.60;;;14.83;;
18290;SDS011;9271;48.590;8.866;2022-12-11T06:56:51;14.40;;;10.73;;
18290;SDS011;9271;48.590;8.866;2022-12-11T06:59:18;12.87;;;8.93;;
18290;SDS011;9271;48.590;8.866;2022-12-11T07:01:45;11.40;;;8.53;;
18290;SDS011;9271;48.590;8.866;2022-12-11T07:04:11;11.23;;;8.17;;
18290;SDS011;9271;48.590;8.866;2022-12-11T07:06:38;12.27;;;9.00;;
18290;SDS011;9271;48.590;8.866;2022-12-11T07:09:06;10.93;;;8.27;;
18290;SDS011;9271;48.590;8.866;2022-12-11T07:11:33;13.07;;;9.23;;
18290;SDS011;9271;48.590;8.866;2022-12-11T07:14:00;12.17;;;9.03;;
18290;SDS011;9271;48.590;8.866;2022-12-11T07:16:27;12.70;;;9.50;;
18290;SDS011;9271;48.590;8.866;2022-12-11T07:18:54;12.83;;;9.40;;
18290;SDS011;9271;48.590;8.866;2022-12-11T07:21:21;11.97;;;9.50;;
18290;SDS011;9271;48.590;8.866;2022-12-11T07:23:47;13.63;;;9.67;;
18290;SDS011;9271;48.590;8.866;2022-12-11T07:26:17;15.27;;;10.17;;
18290;SDS011;9271;48.590;8.866;2022-12-11T07:28:45;11.90;;;9.57;;
18290;SDS011;9271;48.590;8.866;2022-12-11T07:31:13;10.90;;;8.77;;
18290;SDS011;9271;48.590;8.866;2022-12-11T07:33:41;12.20;;;8.93;;
18290;SDS011;9271;48.590;8.866;2022-12-11T07:36:10;9.97;;;8.43;;
18290;SDS011;9271;48.590;8.866;2022-12-11T07:38:37;10.00;;;8.63;;
18290;SDS011;9271;48.590;8.866;2022-12-11T07:41:05;10.27;;;8.27;;
18290;SDS011;9271;48.590;8.866;2022-12-11T07:43:34;10.13;;;8.53;;
18290;SDS011;9271;48.590;8.866;2022-12-11T07:46:02;10.07;;;8.63;;
18290;SDS011;9271;48.590;8.866;2022-12-11T07:48:30;11.50;;;8.60;;
18290;SDS011;9271;48.590;8.866;2022-12-11T07:51:05;8.97;;;7.73;;
18290;SDS011;9271;48.590;8.866;2022-12-11T07:53:33;9.57;;;7.70;;
18290;SDS011;9271;48.590;8.866;2022-12-11T07:56:00;9.73;;;7.47;;
18290;SDS011;9271;48.590;8.866;2022-12-11T07:58:26;9.40;;;8.07;;
18290;SDS011;9271;48.590;8.866;2022-12-11T08:00:54;9.53;;;7.90;;
18290;SDS011;9271;48.590;8.866;2022-12-11T08:03:22;9.37;;;7.40;;
18290;SDS011;9271;48.590;8.866;2022-12-11T08:05:49;8.80;;;7.57;;
18290;SDS011;9271;48.590;8.866;2022-12-11T08:08:17;9.23;;;7.53;;
18290;SDS011;9271;48.590;8.866;2022-12-11T08:10:44;7.93;;;6.93;;
18290;SDS011;9271;48.590;8.866;2022-12-11T08:13:11;9.10;;;7.53;;
18290;SDS011;9271;48.590;8.866;2022-12-11T08:15:38;7.43;;;6.73;;
18290;SDS011;9271;48.590;8.866;2022-12-11T08:18:06;10.17;;;9.13;;
18290;SDS011;9271;48.590;8.866;2022-12-11T08:20:33;11.57;;;9.80;;
18290;SDS011;9271;48.590;8.866;2022-12-11T08:22:59;9.83;;;8.83;;
18290;SDS011;9271;48.590;8.866;2022-12-11T08:25:26;11.17;;;9.07;;
18290;SDS011;9271;48.590;8.866;2022-12-11T08:27:53;9.70;;;8.67;;
18290;SDS011;9271;48.590;8.866;2022-12-11T08:30:19;10.17;;;8.80;;
18290;SDS011;9271;48.590;8.866;2022-12-11T08:32:46;10.10;;;9.03;;
18290;SDS011;9271;48.590;8.866;2022-12-11T08:35:14;9.67;;;8.67;;
18290;SDS011;9271;48.590;8.866;2022-12-11T08:37:41;9.50;;;8.50;;
18290;SDS011;9271;48.590;8.866;2022-12-11T08:40:08;9.27;;;8.23;;
18290;SDS011;9271;48.590;8.866;2022-12-11T08:42:36;10.20;;;8.00;;
18290;SDS011;9271;48.590;8.866;2022-12-11T08:45:03;9.13;;;8.10;;
18290;SDS011;9271;48.590;8.866;2022-12-11T08:47:31;9.47;;;8.03;;
18290;SDS011;9271;48.590;8.866;2022-12-11T08:49:57;9.57;;;8.60;;
18290;SDS011;9271;48.590;8.866;2022-12-11T08:52:25;10.37;;;8.40;;
18290;SDS011;9271;48.590;8.866;2022-12-11T08:54:52;10.33;;;8.50;;
18290;SDS011;9271;48.590;8.866;2022-12-11T08:57:19;10.53;;;8.63;;
18290;SDS011;9271;48.590;8.866;2022-12-11T08:59:46;11.83;;;9.43;;
18290;SDS011;9271;48.590;8.866;2022-12-11T09:02:12;10.67;;;8.30;;
18290;SDS011;9271;48.590;8.866;2022-12-11T09:04:39;9.47;;;8.17;;
18290;SDS011;9271;48.590;8.866;2022-12-11T09:07:06;14.93;;;10.47;;
18290;SDS011;9271;48.590;8.866;2022-12-11T09:09:34;18.63;;;13.77;;
18290;SDS011;9271;48.590;8.866;2022-12-11T09:12:01;18.43;;;12.17;;
18290;SDS011;9271;48.590;8.866;2022-12-11T09:14:28;16.63;;;10.57;;
18290;SDS011;9271;48.590;8.866;2022-12-11T09:16:55;9.37;;;8.03;;
18290;SDS011;9271;48.590;8.866;2022-12-11T09:19:22;9.83;;;8.23;;
18290;SDS011;9271;48.590;8.866;2022-12-11T09:21:48;9.67;;;8.20;;
18290;SDS011;9271;48.590;8.866;2022-12-11T09:24:15;10.80;;;8.77;;
18290;SDS011;9271;48.590;8.866;2022-12-11T09:26:43;11.50;;;9.80;;
18290;SDS011;9271;48.590;8.866;2022-12-11T09:29:11;9.17;;;8.27;;
18290;SDS011;9271;48.590;8.866;2022-12-11T09:31:38;12.23;;;10.00;;
18290;SDS011;9271;48.590;8.866;2022-12-11T09:34:05;11.90;;;9.50;;
18290;SDS011;9271;48.590;8.866;2022-12-11T09:36:33;18.37;;;12.50;;
18290;SDS011;9271;48.590;8.866;2022-12-11T09:39:01;19.40;;;13.47;;
18290;SDS011;9271;48.590;8.866;2022-12-11T09:41:34;17.03;;;12.67;;
18290;SDS011;9271;48.590;8.866;2022-12-11T09:44:08;11.20;;;9.87;;
18290;SDS011;9271;48.590;8.866;2022-12-11T09:46:45;11.20;;;9.70;;
18290;SDS011;9271;48.590;8.866;2022-12-11T09:49:14;12.03;;;8.80;;
18290;SDS011;9271;48.590;8.866;2022-12-11T09:51:48;9.50;;;8.17;;
18290;SDS011;9271;48.590;8.866;2022-12-11T09:54:18;9.87;;;8.83;;
18290;SDS011;9271;48.590;8.866;2022-12-11T09:56:46;10.30;;;8.80;;
18290;SDS011;9271;48.590;8.866;2022-12-11T09:59:24;9.83;;;8.60;;
18290;SDS011;9271;48.590;8.866;2022-12-11T10:01:57;9.93;;;8.57;;
18290;SDS011;9271;48.590;8.866;2022-12-11T10:04:39;9.23;;;7.93;;
18290;SDS011;9271;48.590;8.866;2022-12-11T10:07:17;10.77;;;8.97;;
18290;SDS011;9271;48.590;8.866;2022-12-11T10:09:54;11.03;;;9.27;;
18290;SDS011;9271;48.590;8.866;2022-12-11T10:12:28;9.43;;;8.23;;
18290;SDS011;9271;48.590;8.866;2022-12-11T10:15:13;12.53;;;10.00;;
18290;SDS011;9271;48.590;8.866;2022-12-11T10:17:49;11.20;;;9.83;;
18290;SDS011;9271;48.590;8.866;2022-12-11T10:20:21;11.87;;;9.10;;
18290;SDS011;9271;48.590;8.866;2022-12-11T10:22:51;11.07;;;9.17;;
18290;SDS011;9271;48.590;8.866;2022-12-11T10:25:20;9.10;;;8.10;;
18290;SDS011;9271;48.590;8.866;2022-12-11T10:27:50;9.80;;;8.40;;
18290;SDS011;9271;48.590;8.866;2022-12-11T10:30:20;11.17;;;9.10;;
18290;SDS011;9271;48.590;8.866;2022-12-11T10:32:52;11.87;;;9.17;;
18290;SDS011;9271;48.590;8.866;2022-12-11T10:35:30;11.80;;;9.07;;
18290;SDS011;9271;48.590;8.866;2022-12-11T10:38:08;11.20;;;8.77;;
18290;SDS011;9271;48.590;8.866;2022-12-11T10:40:39;10.40;;;9.20;;
18290;SDS011;9271;48.590;8.866;2022-12-11T10:43:10;10.60;;;8.70;;
18290;SDS011;9271;48.590;8.866;2022-12-11T10:45:38;10.13;;;9.03;;
18290;SDS011;9271;48.590;8.866;2022-12-11T10:48:08;10.20;;;9.20;;
18290;SDS011;9271;48.590;8.866;2022-12-11T10:50:37;10.00;;;8.73;;
18290;SDS011;9271;48.590;8.866;2022-12-11T10:53:05;11.43;;;9.20;;
18290;SDS011;9271;48.590;8.866;2022-12-11T10:55:35;10.50;;;8.53;;
18290;SDS011;9271;48.590;8.866;2022-12-11T10:58:11;11.03;;;9.40;;
18290;SDS011;9271;48.590;8.866;2022-12-11T11:00:44;10.47;;;8.60;;
18290;SDS011;9271;48.590;8.866;2022-12-11T11:03:19;10.90;;;8.60;;
18290;SDS011;9271;48.590;8.866;2022-12-11T11:05:47;9.90;;;8.73;;
18290;SDS011;9271;48.590;8.866;2022-12-11T11:08:16;10.43;;;9.33;;
18290;SDS011;9271;48.590;8.866;2022-12-11T11:10:51;10.90;;;8.90;;
18290;SDS011;9271;48.590;8.866;2022-12-11T11:13:20;11.50;;;9.30;;
18290;SDS011;9271;48.590;8.866;2022-12-11T11:15:49;10.67;;;9.20;;
18290;SDS011;9271;48.590;8.866;2022-12-11T11:18:24;12.47;;;8.73;;
18290;SDS011;9271;48.590;8.866;2022-12-11T11:20:52;9.60;;;8.60;;
18290;SDS011;9271;48.590;8.866;2022-12-11T11:23:19;10.43;;;8.73;;
18290;SDS011;9271;48.590;8.866;2022-12-11T11:25:50;11.07;;;9.37;;
18290;SDS011;9271;48.590;8.866;2022-12-11T11:28:19;10.40;;;8.80;;
18290;SDS011;9271;48.590;8.866;2022-12-11T11:30:57;9.80;;;8.43;;
18290;SDS011;9271;48.590;8.866;2022-12-11T11:33:27;10.83;;;8.87;;
18290;SDS011;9271;48.590;8.866;2022-12-11T11:35:55;9.50;;;8.50;;
18290;SDS011;9271;48.590;8.866;2022-12-11T11:38:25;9.70;;;8.60;;
18290;SDS011;9271;48.590;8.866;2022-12-11T11:40:57;10.67;;;8.93;;
18290;SDS011;9271;48.590;8.866;2022-12-11T11:43:31;14.17;;;9.17;;
18290;SDS011;9271;48.590;8.866;2022-12-11T11:46:04;11.07;;;9.33;;
18290;SDS011;9271;48.590;8.866;2022-12-11T11:48:38;11.43;;;9.30;;
18290;SDS011;9271;48.590;8.866;2022-12-11T11:51:12;11.23;;;9.07;;
18290;SDS011;9271;48.590;8.866;2022-12-11T11:53:42;10.33;;;9.23;;
18290;SDS011;9271;48.590;8.866;2022-12-11T11:56:16;11.90;;;8.97;;
18290;SDS011;9271;48.590;8.866;2022-12-11T11:58:48;12.07;;;9.83;;
18290;SDS011;9271;48.590;8.866;2022-12-11T12:01:21;11.37;;;9.70;;
18290;SDS011;9271;48.590;8.866;2022-12-11T12:03:49;12.47;;;9.83;;
18290;SDS011;9271;48.590;8.866;2022-12-11T12:06:20;11.97;;;9.57;;
18290;SDS011;9271;48.590;8.866;2022-12-11T12:08:57;11.60;;;9.50;;
18290;SDS011;9271;48.590;8.866;2022-12-11T12:11:33;12.37;;;10.03;;
18290;SDS011;9271;48.590;8.866;2022-12-11T12:14:08;19.23;;;14.30;;
18290;SDS011;9271;48.590;8.866;2022-12-11T12:16:42;15.90;;;14.40;;
18290;SDS011;9271;48.590;8.866;2022-12-11T12:19:21;20.50;;;18.20;;
18290;SDS011;9271;48.590;8.866;2022-12-11T12:22:08;20.87;;;16.83;;
18290;SDS011;9271;48.590;8.866;2022-12-11T12:24:45;17.87;;;15.33;;
18290;SDS011;9271;48.590;8.866;2022-12-11T12:27:21;11.07;;;9.03;;
18290;SDS011;9271;48.590;8.866;2022-12-11T12:29:53;11.67;;;10.10;;
18290;SDS011;9271;48.590;8.866;2022-12-11T12:32:30;11.30;;;9.13;;
18290;SDS011;9271;48.590;8.866;2022-12-11T12:35:07;12.30;;;8.60;;
18290;SDS011;9271;48.590;8.866;2022-12-11T12:37:45;10.13;;;8.60;;
18290;SDS011;9271;48.590;8.866;2022-12-11T12:40:19;10.47;;;8.77;;
18290;SDS011;9271;48.590;8.866;2022-12-11T12:42:57;9.67;;;8.63;;
18290;SDS011;9271;48.590;8.866;2022-12-11T12:45:31;10.40;;;9.30;;
18290;SDS011;9271;48.590;8.866;2022-12-11T12:48:08;10.50;;;9.13;;
18290;SDS011;9271;48.590;8.866;2022-12-11T12:50:36;10.70;;;9.30;;
18290;SDS011;9271;48.590;8.866;2022-12-11T12:53:05;11.93;;;9.17;;
18290;SDS011;9271;48.590;8.866;2022-12-11T12:55:33;14.53;;;10.97;;
18290;SDS011;9271;48.590;8.866;2022-12-11T12:58:02;11.03;;;9.00;;
18290;SDS011;9271;48.590;8.866;2022-12-11T13:00:31;9.63;;;8.63;;
18290;SDS011;9271;48.590;8.866;2022-12-11T13:03:00;9.90;;;8.60;;
18290;SDS011;9271;48.590;8.866;2022-12-11T13:05:39;11.60;;;9.50;;
18290;SDS011;9271;48.590;8.866;2022-12-11T13:08:10;9.60;;;8.43;;
18290;SDS011;9271;48.590;8.866;2022-12-11T13:10:38;10.50;;;8.83;;
18290;SDS011;9271;48.590;8.866;2022-12-11T13:16:05;12.10;;;8.83;;
18290;SDS011;9271;48.590;8.866;2022-12-11T13:18:34;12.27;;;9.57;;
18290;SDS011;9271;48.590;8.866;2022-12-11T13:21:22;10.47;;;8.93;;
18290;SDS011;9271;48.590;8.866;2022-12-11T13:24:05;13.87;;;9.50;;
18290;SDS011;9271;48.590;8.866;2022-12-11T13:26:44;11.83;;;9.03;;
18290;SDS011;9271;48.590;8.866;2022-12-11T13:29:28;11.40;;;8.93;;
18290;SDS011;9271;48.590;8.866;2022-12-11T13:32:00;9.63;;;8.33;;
18290;SDS011;9271;48.590;8.866;2022-12-11T13:34:31;11.33;;;8.67;;
18290;SDS011;9271;48.590;8.866;2022-12-11T13:37:00;12.47;;;8.97;;
18290;SDS011;9271;48.590;8.866;2022-12-11T13:39:29;11.37;;;9.80;;
18290;SDS011;9271;48.590;8.866;2022-12-11T13:41:59;10.83;;;9.13;;
18290;SDS011;9271;48.590;8.866;2022-12-11T13:44:30;10.97;;;8.83;;
18290;SDS011;9271;48.590;8.866;2022-12-11T13:47:02;11.87;;;8.83;;
18290;SDS011;9271;48.590;8.866;2022-12-11T13:49:32;10.57;;;8.60;;
18290;SDS011;9271;48.590;8.866;2022-12-11T13:52:03;9.97;;;8.40;;
18290;SDS011;9271;48.590;8.866;2022-12-11T13:54:32;10.93;;;8.90;;
18290;SDS011;9271;48.590;8.866;2022-12-11T13:57:01;11.87;;;9.17;;
18290;SDS011;9271;48.590;8.866;2022-12-11T13:59:40;10.33;;;9.03;;
18290;SDS011;9271;48.590;8.866;2022-12-11T14:02:12;11.40;;;8.90;;
18290;SDS011;9271;48.590;8.866;2022-12-11T14:04:44;8.93;;;8.00;;
18290;SDS011;9271;48.590;8.866;2022-12-11T14:07:15;12.13;;;8.60;;
18290;SDS011;9271;48.590;8.866;2022-12-11T14:09:47;10.90;;;7.90;;
18290;SDS011;9271;48.590;8.866;2022-12-11T14:12:14;9.73;;;8.10;;
18290;SDS011;9271;48.590;8.866;2022-12-11T14:14:44;13.57;;;8.40;;
18290;SDS011;9271;48.590;8.866;2022-12-11T14:17:16;10.47;;;8.17;;
18290;SDS011;9271;48.590;8.866;2022-12-11T14:19:48;10.67;;;8.50;;
18290;SDS011;9271;48.590;8.866;2022-12-11T14:22:16;10.30;;;8.20;;
18290;SDS011;9271;48.590;8.866;2022-12-11T14:24:48;10.97;;;9.10;;
18290;SDS011;9271;48.590;8.866;2022-12-11T14:27:16;9.30;;;8.23;;
18290;SDS011;9271;48.590;8.866;2022-12-11T14:29:43;10.90;;;8.63;;
18290;SDS011;9271;48.590;8.866;2022-12-11T14:32:12;11.30;;;8.87;;
18290;SDS011;9271;48.590;8.866;2022-12-11T14:34:44;13.50;;;8.70;;
18290;SDS011;9271;48.590;8.866;2022-12-11T14:37:13;11.63;;;8.93;;
18290;SDS011;9271;48.590;8.866;2022-12-11T14:39:43;11.33;;;8.70;;
18290;SDS011;9271;48.590;8.866;2022-12-11T14:42:13;13.37;;;9.40;;
18290;SDS011;9271;48.590;8.866;2022-12-11T14:44:45;12.47;;;9.57;;
18290;SDS011;9271;48.590;8.866;2022-12-11T14:47:14;11.53;;;9.23;;
18290;SDS011;9271;48.590;8.866;2022-12-11T14:49:45;11.70;;;9.00;;
18290;SDS011;9271;48.590;8.866;2022-12-11T14:52:17;13.70;;;9.27;;
18290;SDS011;9271;48.590;8.866;2022-12-11T14:54:49;13.43;;;10.13;;
18290;SDS011;9271;48.590;8.866;2022-12-11T14:57:21;11.73;;;9.20;;
18290;SDS011;9271;48.590;8.866;2022-12-11T14:59:50;14.10;;;10.87;;
18290;SDS011;9271;48.590;8.866;2022-12-11T15:02:23;12.60;;;10.03;;
18290;SDS011;9271;48.590;8.866;2022-12-11T15:04:59;13.80;;;10.97;;
18290;SDS011;9271;48.590;8.866;2022-12-11T15:07:30;12.63;;;9.37;;
18290;SDS011;9271;48.590;8.866;2022-12-11T15:09:59;12.37;;;9.90;;
18290;SDS011;9271;48.590;8.866;2022-12-11T15:12:25;11.63;;;9.57;;